Latest Coastal Weather Observations for Albany Airport

IDW60701

Issued at 3:53 am WST Saturday 27 August 2016 (issued every 10 minutes, with the page automatically refreshed every 10 minutes)

About coastal observations | Map of coastal stations | Coastal observations for WA | Marine services | Other Formats
Station Details ID: 009999 Name: ALBANY AIRPORT Lat: -34.94 Lon: 117.82 Height: 68.4 m
Data from the previous 72 hours. | See also: Recent months at Albany Airport
Date/Time
WST
Temp
°C
Wind Pressure Rain since
9am
mm
Weather Cloud Vis
km
Sea
Height
m
Swell
Dir  Spd
kts
Gust
kts
hPa Trend Height
m
Period
s
Dir
27/03:30am 11.2 NW 9 14 998.6 - 4.0 - Partly cloudy 10 - - - -
27/03:27am 11.3 NW 10 14 998.6 - 4.0 - Partly cloudy 10 - - - -
27/03:00am 11.6 W 7 13 999.0 - 3.4 - Cloudy 5 - - - -
27/02:30am 11.5 NW 7 8 999.1 - 2.2 - Partly cloudy 10 - - - -
27/02:00am 11.7 NW 8 10 999.2 - 2.0 - Partly cloudy 10 - - - -
27/01:30am 11.9 NW 9 12 999.4 - 1.8 - Partly cloudy 10 - - - -
27/01:00am 12.0 NW 9 13 999.9 - 1.8 - Partly cloudy 10 - - - -
27/12:30am 12.1 NNW 10 13 1000.4 - 1.2 - Partly cloudy 10 - - - -
27/12:00am 12.4 NW 8 12 1000.0 - 1.2 - Cloudy 10 - - - -
 
Date/Time
WST
Temp
°C
Wind Pressure Rain since
9am
mm
Weather Cloud Vis
km
Sea
Height
m
Swell
Dir  Spd
kts
Gust
kts
hPa Trend Height
m
Period
s
Dir
26/11:30pm 12.8 NW 10 12 1001.6 - 0.2 - Partly cloudy 10 - - - -
26/11:00pm 13.2 NW 9 12 1000.9 - 0.2 - Partly cloudy 10 - - - -
26/10:30pm 13.5 NW 11 15 1001.7 - 0.0 - Partly cloudy 10 - - - -
26/10:00pm 13.4 NW 12 14 1001.5 - 0.0 - Partly cloudy 10 - - - -
26/09:30pm 14.6 N 12 16 1002.0 - 0.0 - Partly cloudy 10 - - - -
26/09:00pm 16.1 NNW 14 20 1001.8 - 0.0 - Cloudy 10 - - - -
26/08:30pm 16.4 N 13 20 1001.6 - 0.0 - Partly cloudy 10 - - - -
26/08:00pm 16.6 N 12 18 1002.2 - 0.0 - Cloudy 10 - - - -
26/07:30pm 16.7 N 11 15 1002.2 - 0.0 - Partly cloudy 10 - - - -
26/07:00pm 16.8 N 10 12 1003.2 - 0.0 - Cloudy 10 - - - -
26/06:30pm 16.8 N 9 13 1003.2 - 0.0 - Cloudy 10 - - - -
26/06:00pm 16.8 N 8 11 1003.7 - 0.0 - Cloudy 10 - - - -
26/05:30pm 16.9 N 8 10 1003.3 - 0.0 - Partly cloudy 10 - - - -
26/05:00pm 17.9 N 10 15 1003.9 - 0.0 - Partly cloudy 10 - - - -
26/04:30pm 17.9 N 10 12 1003.9 - 0.0 - - 10 - - - -
26/04:00pm 18.1 N 12 17 1004.1 - 0.0 - - 10 - - - -
26/03:30pm 18.3 N 11 15 1004.2 - 0.0 - - 10 - - - -
26/03:00pm 18.3 N 12 16 1004.9 - 0.0 - - 10 - - - -
26/02:30pm 18.5 N 15 21 1004.8 - 0.0 - - 10 - - - -
26/02:00pm 19.5 N 13 16 1005.1 - 0.0 - - 10 - - - -
26/01:30pm 19.2 N 13 21 1005.3 - 0.0 - - 10 - - - -
26/01:00pm 18.6 N 13 18 1005.7 - 0.0 - - 10 - - - -
26/12:30pm 18.1 N 17 23 1006.5 - 0.0 - - 10 - - - -
26/12:00pm 17.3 N 17 26 1007.7 - 0.0 - - 10 - - - -
26/11:30am 17.9 N 19 25 1008.1 - 0.0 - - 10 - - - -
26/11:00am 17.5 N 17 23 1009.0 - 0.0 - - 10 - - - -
26/10:30am 16.8 N 17 24 1009.9 - 0.0 - - 10 - - - -
26/10:00am 15.4 N 17 24 1010.5 - 0.0 - - 10 - - - -
26/09:30am 16.2 N 17 27 1010.9 - 0.0 - - 10 - - - -
26/09:00am 15.4 N 14 18 1011.6 - 0.2 - - 10 - - - -
26/08:30am 13.8 N 13 21 1012.1 - 0.2 - - 10 - - - -
26/08:00am 13.5 N 9 11 1012.4 - 0.2 - - 10 - - - -
26/07:30am 12.9 N 11 15 1012.8 - 0.2 - - 10 - - - -
26/07:00am 12.6 N 13 17 1013.1 - 0.2 - - 10 - - - -
26/06:30am 12.1 N 12 16 1012.9 - 0.2 - - 10 - - - -
26/06:00am 11.6 N 12 18 1013.2 - 0.2 - - 10 - - - -
26/05:30am 11.0 N 8 12 1013.6 - 0.2 - - 10 - - - -
26/05:00am 9.9 N 8 9 1013.9 - 0.2 - - 10 - - - -
26/04:30am 7.9 N 6 7 1014.0 - 0.2 - - 10 - - - -
26/04:00am 7.0 NE 3 5 1014.4 - 0.2 - - 10 - - - -
26/03:30am 6.2 NE 3 4 1014.8 - 0.2 - - 10 - - - -
26/03:00am 6.0 NE 3 4 1015.7 - 0.2 - - 10 - - - -
26/02:30am 5.9 NNE 5 6 1016.0 - 0.2 - - 10 - - - -
26/02:00am 5.8 NNE 5 6 1016.6 - 0.2 - - 10 - - - -
26/01:30am 5.5 NE 4 5 1017.2 - 0.2 - - 10 - - - -
26/01:00am 6.0 NE 4 6 1017.7 - 0.2 - - 10 - - - -
26/12:30am 6.6 NE 6 7 1017.9 - 0.2 - - 10 - - - -
26/12:00am 7.6 NE 6 7 1018.6 - 0.2 - - 10 - - - -
 
Date/Time
WST
Temp
°C
Wind Pressure Rain since
9am
mm
Weather Cloud Vis
km
Sea
Height
m
Swell
Dir  Spd
kts
Gust
kts
hPa Trend Height
m
Period
s
Dir
25/11:30pm 8.1 NE 7 9 1018.8 - 0.2 - - 10 - - - -
25/11:00pm 8.5 ENE 8 11 1019.4 - 0.2 - - 10 - - - -
25/10:30pm 8.4 NE 6 8 1020.0 - 0.2 - - 10 - - - -
25/10:00pm 8.9 NE 7 9 1020.4 - 0.2 - - 10 - - - -
25/09:30pm 9.1 NE 7 9 1020.5 - 0.2 - - 10 - - - -
25/09:00pm 9.3 NE 9 12 1021.0 - 0.2 - - 10 - - - -
25/08:30pm 9.4 NE 10 15 1020.9 - 0.2 - - 10 - - - -
25/08:00pm 7.8 ENE 5 7 1020.9 - 0.2 - - 10 - - - -
25/07:30pm 7.4 E 5 6 1021.1 - 0.2 - - 10 - - - -
25/07:00pm 8.5 ENE 4 5 1021.2 - 0.2 - - 10 - - - -
25/06:30pm 10.0 NE 6 7 1020.6 - 0.2 - - 10 - - - -
25/06:00pm 11.4 NE 6 7 1020.6 - 0.2 - - 10 - - - -
25/05:30pm 13.1 NE 7 9 1020.2 - 0.2 - - 10 - - - -
25/05:00pm 14.6 NE 9 13 1020.3 - 0.2 - - 10 - - - -
25/04:30pm 15.5 NE 10 15 1020.6 - 0.2 - - 10 - - - -
25/04:00pm 16.0 NE 10 15 1020.9 - 0.2 - - 10 - - - -
25/03:30pm 16.2 NE 10 15 1021.3 - 0.2 - - 10 - - - -
25/03:00pm 16.1 NE 11 15 1021.9 - 0.2 - Mostly clear 10 - - - -
25/02:30pm 16.4 NE 10 15 1022.0 - 0.2 - Mostly clear 10 - - - -
25/02:00pm 15.5 NE 9 12 1022.3 - 0.2 - Mostly clear 10 - - - -
25/01:30pm 16.4 NE 10 12 1022.8 - 0.2 - Mostly clear 10 - - - -
25/01:00pm 15.9 NNE 9 13 1023.4 - 0.2 - Mostly clear 10 - - - -
25/12:30pm 15.3 NNE 9 14 1024.1 - 0.2 - Mostly clear 10 - - - -
25/12:00pm 14.7 NNE 10 14 1024.9 - 0.0 - Mostly clear 10 - - - -
25/11:30am 14.6 NNE 9 15 1025.5 - 0.0 - Mostly clear 10 - - - -
25/11:00am 14.6 NNE 8 11 1026.0 - 0.0 - Mostly clear 10 - - - -
25/10:30am 13.4 NNE 11 14 1026.3 - 0.0 - Mostly clear 10 - - - -
25/10:00am 13.1 NNE 11 14 1026.3 - 0.0 - Mostly clear 10 - - - -
25/09:30am 12.3 NE 9 13 1026.4 - 0.0 - Mostly clear 10 - - - -
25/09:00am 11.2 NNE 9 13 1026.8 - 0.0 - Mostly clear 10 - - - -
25/08:30am 10.0 NNE 6 8 1026.7 - 0.0 - Mostly clear 10 - - - -
25/08:00am 8.3 N 4 5 1026.7 - 0.0 - Mostly clear 10 - - - -
25/07:30am 6.9 NNE 4 5 1026.5 - 0.0 - Mostly clear 10 - - - -
25/07:10am 6.1 ENE 4 4 1026.4 - 0.0 - Mostly clear 10 - - - -
25/07:00am 6.1 ENE 4 4 1026.3 - 0.0 Shallow fog Mostly clear 10 - - - -
25/06:48am 5.8 ENE 4 5 1026.1 - 0.0 - - 5 - - - -
25/06:30am 6.3 NE 4 5 1026.0 - 0.0 - - 10 - - - -
25/06:00am 7.0 NE 4 5 1026.3 - 0.0 - Mostly cloudy 10 - - - -
25/05:30am 7.6 NE 4 5 1026.1 - 0.0 - Cloudy 10 - - - -
25/05:23am 7.7 NNE 4 5 1026.1 - 0.0 - Cloudy 10 - - - -
25/05:00am 7.1 N 4 4 1025.9 - 0.0 - Cloudy 3 - - - -
25/04:56am 6.9 N 4 4 1025.9 - 0.0 - Partly cloudy 5 - - - -
25/04:30am 7.6 NE 4 4 1025.7 - 0.0 - Cloudy 10 - - - -
25/04:00am 7.7 CALM 0 3 1025.7 - 0.0 - Cloudy 10 - - - -
25/03:52am 7.8 CALM 0 0 1025.8 - 0.0 - Cloudy 10 - - - -
25/03:30am 7.8 N 3 4 1025.8 - 0.0 - Partly cloudy 2 - - - -
25/03:00am 7.6 N 5 5 1025.9 - 0.0 - Mostly cloudy 5 - - - -
25/02:30am 8.4 CALM 0 0 1025.5 - 0.0 - Partly cloudy 2 - - - -
25/02:26am 8.2 CALM 0 0 1025.6 - 0.0 - Partly cloudy 4 - - - -
25/02:00am 9.0 CALM 0 0 1025.9 - 0.0 - Cloudy 10 - - - -
25/01:30am 8.9 CALM 0 0 1026.2 - 0.0 - Cloudy 10 - - - -
25/01:00am 8.9 CALM 0 0 1026.7 - 0.0 - Partly cloudy 10 - - - -
25/12:30am 8.7 NNW 3 4 1026.7 - 0.0 - Partly cloudy 10 - - - -
25/12:00am 9.4 CALM 0 0 1027.2 - 0.0 - Mostly cloudy 10 - - - -
 
Date/Time
WST
Temp
°C
Wind Pressure Rain since
9am
mm
Weather Cloud Vis
km
Sea
Height
m
Swell
Dir  Spd
kts
Gust
kts
hPa Trend Height
m
Period
s
Dir
24/11:30pm 9.3 NE 3 4 1027.3 - 0.0 - Partly cloudy 10 - - - -
24/11:00pm 9.4 SW 3 4 1027.3 - 0.0 - Partly cloudy 10 - - - -
24/10:30pm 9.5 W 3 4 1027.6 - 0.0 - Cloudy 10 - - - -
24/10:00pm 9.4 W 3 5 1027.6 - 0.0 - Cloudy 10 - - - -
24/09:30pm 9.1 N 3 4 1027.8 - 0.0 - Cloudy 10 - - - -
24/09:01pm 9.2 N 5 5 1027.8 - 0.0 - Partly cloudy 10 - - - -
24/09:00pm 9.2 N 5 5 1028.0 - 0.0 - Cloudy 10 - - - -
24/08:33pm 9.5 NE 4 5 1027.8 - 0.0 - Partly cloudy 6 - - - -
24/08:32pm 9.5 NE 4 5 1027.8 - 0.0 - Partly cloudy 8 - - - -
24/08:30pm 9.5 NE 4 6 1027.8 - 0.0 - Partly cloudy 10 - - - -
24/08:14pm 9.8 ENE 5 7 1027.7 - 0.0 - Partly cloudy 6 - - - -
24/08:00pm 10.0 ESE 4 5 1027.6 - 0.0 - Partly cloudy 10 - - - -
24/07:30pm 10.3 E 5 7 1027.4 - 0.0 - Partly cloudy 10 - - - -
24/07:00pm 10.9 ESE 7 9 1027.2 - 0.0 - Partly cloudy 10 - - - -
24/06:30pm 10.9 ESE 3 4 1027.0 - 0.0 - Cloudy 10 - - - -
24/06:00pm 11.1 ESE 5 6 1027.0 - 0.0 - Mostly cloudy 10 - - - -
24/05:30pm 11.3 ESE 5 7 1026.8 - 0.0 - Partly cloudy 10 - - - -
24/05:00pm 12.5 SE 6 8 1026.7 - 0.0 - Partly cloudy 10 - - - -
24/04:30pm 12.7 SSE 6 9 1026.4 - 0.0 - Cloudy 10 - - - -
24/04:00pm 12.7 SE 7 10 1026.4 - 0.0 - Cloudy 10 - - - -
24/03:30pm 13.0 SE 6 8 1026.4 - 0.0 - Cloudy 10 - - - -
24/03:00pm 13.0 SE 6 9 1026.3 - 0.0 - Mostly cloudy 10 - - - -
24/02:30pm 13.1 E 7 9 1026.1 - 0.0 - Mostly clear 10 - - - -
24/02:00pm 12.9 SE 5 8 1026.2 - 0.0 - Mostly cloudy 10 - - - -
24/01:30pm 13.0 SSE 5 8 1026.3 - 0.0 - Mostly cloudy 10 - - - -
24/01:00pm 13.0 SSE 5 8 1026.5 - 0.0 - Mostly cloudy 10 - - - -
24/12:30pm 12.9 SE 5 7 1026.7 - 0.0 - Mostly cloudy 10 - - - -
24/12:00pm 12.9 ESE 5 7 1027.2 - 0.0 - Cloudy 10 - - - -
24/11:30am 12.7 E 5 8 1027.1 - 0.0 - Mostly cloudy 10 - - - -
24/11:00am 12.4 SSE 4 6 1027.3 - 0.0 - Mostly cloudy 10 - - - -
24/10:30am 12.6 W 1 4 1027.3 - 0.0 - Mostly cloudy 10 - - - -
24/10:00am 11.8 CALM 0 0 1027.3 - 0.0 - Mostly cloudy 10 - - - -
24/09:30am 10.4 NNW 1 3 1027.5 - 0.0 - Mostly cloudy 10 - - - -
24/09:00am 9.5 WNW 3 4 1027.7 - 0.0 - Cloudy 10 - - - -
24/08:30am 8.3 W 3 5 1027.4 - 0.0 - Mostly cloudy 10 - - - -
24/08:00am 7.2 CALM 0 0 1027.0 - 0.0 - Mostly cloudy 10 - - - -
24/07:30am 6.2 WNW 3 4 1026.9 - 0.0 - Mostly cloudy 10 - - - -
24/07:00am 5.8 W 4 6 1026.8 - 0.0 - Mostly cloudy 10 - - - -
24/06:30am 5.6 W 2 5 1026.5 - 0.0 - Cloudy 10 - - - -
24/06:00am 5.5 WNW 4 5 1026.7 - 0.0 - Cloudy 10 - - - -
24/05:30am 5.2 W 4 5 1026.4 - 0.0 - Cloudy 10 - - - -
24/05:00am 4.9 CALM 0 0 1026.1 - 0.0 - Cloudy 10 - - - -
24/04:30am 4.8 NW 4 6 1025.9 - 0.0 - Cloudy 10 - - - -
24/04:00am 3.8 CALM 0 3 1026.0 - 0.0 - Partly cloudy 10 - - - -

Other Formats:

Comma delimited format used in spreadsheet applications
http://www.bom.gov.au/fwo/IDW60701/IDW60701.94802.axf

JavaScript Object Notation format (JSON) in row-major order
http://www.bom.gov.au/fwo/IDW60701/IDW60701.94802.json